Latest Weather Observations for Dunalley

IDT60901

Issued at 2:45 pm EST Wednesday 20 August 2014 (issued every 10 minutes, with the page automatically refreshed every 10 minutes)

About weather observations | Map of Hobart area stations | Latest observations for Hobart area | Other Formats
Station Details ID: 094254 Name: DUNALLEY (STROUD POINT) Lat: -42.90 Lon: 147.79 Height: 12.43 m
Data from the previous 72 hours. | See also: Recent months at Dunalley
Date/Time
EST
Tmp

°C
App
Tmp
°C
Dew
Point
°C
Rel
Hum
%
Delta-T

°C
Wind Press
QNH
hPa
Press
MSL
hPa
Rain
since
9 am
mm
Dir
 
Spd
km/h
Gust
km/h
Spd
kts
Gust
kts
20/02:30pm 13.0 9.9 5.4 60 3.5 W 11 15 6 8 1026.6 - 0.0
20/02:00pm 12.9 9.4 5.6 61 3.4 W 13 15 7 8 1026.4 1026.5 0.0
20/01:30pm 12.7 8.8 5.4 61 3.4 W 15 19 8 10 1026.2 - 0.0
20/01:00pm 12.3 8.0 5.2 62 3.3 W 17 20 9 11 1026.2 1026.3 0.0
20/12:30pm 12.1 8.1 4.8 61 3.3 W 15 20 8 11 1026.4 - 0.0
20/12:00pm 12.2 8.3 5.4 63 3.1 W 15 19 8 10 1026.5 1026.6 0.0
20/11:30am 11.4 7.1 5.1 65 2.9 W 17 20 9 11 1026.8 - 0.0
20/11:00am 11.5 7.2 5.4 66 2.8 W 17 20 9 11 1026.7 1026.8 0.0
20/10:30am 10.4 6.3 4.5 67 2.6 W 15 22 8 12 1026.7 - 0.0
20/10:00am 10.8 7.1 4.5 65 2.8 W 13 19 7 10 1026.5 1026.6 0.0
20/09:30am 10.2 6.1 4.6 68 2.5 WNW 15 22 8 12 1026.3 - 0.0
20/09:00am 9.5 5.0 4.3 70 2.3 NW 17 22 9 12 1026.0 1026.1 0.0
20/08:30am 8.8 4.2 3.8 71 2.2 WNW 17 22 9 12 1025.8 - 0.0
20/08:00am 7.4 3.5 3.3 75 1.7 NW 13 19 7 10 1025.6 1025.7 0.0
20/07:30am 7.2 2.5 3.3 76 1.6 NW 17 22 9 12 1025.3 - 0.0
20/07:00am 6.8 2.1 3.1 77 1.5 WNW 17 20 9 11 1024.9 1025.0 0.0
20/06:30am 6.7 1.6 3.1 78 1.5 WNW 19 24 10 13 1024.6 - 0.0
20/06:00am 6.9 2.2 3.2 77 1.5 WNW 17 22 9 12 1024.3 1024.4 0.0
20/05:30am 6.8 2.5 3.2 78 1.5 WNW 15 20 8 11 1024.3 - 0.0
20/05:00am 6.5 2.1 2.9 78 1.5 WNW 15 20 8 11 1024.1 1024.2 0.0
20/04:30am 6.5 2.5 2.9 78 1.5 WNW 13 17 7 9 1024.0 - 0.0
20/04:00am 6.5 2.1 2.9 78 1.5 WNW 15 19 8 10 1024.0 1024.1 0.0
20/03:30am 6.8 2.1 3.1 77 1.5 WNW 17 22 9 12 1024.0 - 0.0
20/03:00am 6.8 2.1 2.9 76 1.6 WNW 17 20 9 11 1023.9 1024.0 0.0
20/02:30am 6.9 2.5 2.8 75 1.7 NW 15 20 8 11 1023.9 - 0.0
20/02:00am 6.9 2.9 3.0 76 1.6 NW 13 17 7 9 1024.1 1024.2 0.0
20/01:30am 7.0 3.0 2.9 75 1.7 WNW 13 19 7 10 1024.0 - 0.0
20/01:00am 6.4 4.4 2.5 76 1.6 W 2 4 1 2 1023.9 1024.0 0.0
20/12:30am 6.7 4.8 3.0 77 1.5 W 2 6 1 3 1023.9 - 0.0
20/12:00am 6.9 5.5 3.7 80 1.4 WNW 0 2 0 1 1024.0 1024.1 0.0
 
Date/Time
EST
Tmp

°C
App
Tmp
°C
Dew
Point
°C
Rel
Hum
%
Delta-T

°C
Wind Press
QNH
hPa
Press
MSL
hPa
Rain
since
9 am
mm
Dir
 
Spd
km/h
Gust
km/h
Spd
kts
Gust
kts
19/11:30pm 6.8 3.7 3.8 81 1.3 W 9 11 5 6 1023.9 - 0.0
19/11:00pm 7.2 4.1 3.6 78 1.5 W 9 13 5 7 1023.7 1023.8 0.0
19/10:30pm 7.1 3.6 3.7 79 1.4 W 11 13 6 7 1023.7 - 0.0
19/10:00pm 8.8 5.0 5.9 82 1.3 WSW 15 19 8 10 1023.7 1023.8 0.0
19/09:30pm 7.8 5.1 5.4 85 1.1 W 9 11 5 6 1023.8 - 0.0
19/09:00pm 9.0 5.7 6.4 84 1.2 W 13 19 7 10 1023.7 1023.8 0.0
19/08:30pm 9.2 6.6 6.3 82 1.3 WSW 9 11 5 6 1023.6 - 0.0
19/08:00pm 8.7 6.6 5.8 82 1.3 WSW 6 7 3 4 1023.4 1023.5 0.0
19/07:30pm 8.8 6.8 6.4 85 1.1 WSW 6 7 3 4 1023.1 - 0.0
19/07:00pm 9.3 6.8 6.7 84 1.2 WSW 9 11 5 6 1022.9 1023.0 0.0
19/06:30pm 9.5 7.1 6.9 84 1.2 WSW 9 11 5 6 1022.6 - 0.0
19/06:00pm 9.9 7.8 6.8 81 1.4 WSW 7 11 4 6 1022.3 1022.4 0.0
19/05:30pm 10.4 9.6 6.5 77 1.8 CALM 0 4 0 2 1022.1 - 0.0
19/05:00pm 10.5 9.1 5.7 72 2.2 WSW 2 6 1 3 1022.0 1022.1 0.0
19/04:30pm 10.9 9.7 4.6 65 2.8 CALM 0 6 0 3 1021.9 - 0.0
19/04:00pm 10.8 9.5 6.2 73 2.1 WSW 2 6 1 3 1021.8 1021.9 0.0
19/03:30pm 11.0 9.3 5.7 70 2.4 WSW 4 6 2 3 1021.8 - 0.0
19/03:00pm 11.1 9.0 5.8 70 2.4 WSW 6 9 3 5 1021.8 1021.9 0.0
19/02:30pm 11.4 8.0 5.9 69 2.6 WSW 13 15 7 8 1021.8 - 0.0
19/02:00pm 11.7 8.8 6.6 71 2.4 WSW 11 15 6 8 1021.7 1021.8 0.0
19/01:30pm 12.5 9.1 4.2 57 3.8 W 11 15 6 8 1021.9 - 0.0
19/01:00pm 11.6 8.2 5.7 67 2.7 WSW 13 17 7 9 1022.2 1022.3 0.0
19/12:30pm 12.6 8.8 4.1 56 3.8 W 13 17 7 9 1022.5 - 0.0
19/12:00pm 12.5 8.8 4.7 59 3.6 W 13 19 7 10 1022.8 1022.9 0.0
19/11:30am 11.0 7.3 4.7 65 2.8 WSW 13 19 7 10 1023.3 - 0.0
19/11:00am 10.2 7.2 4.1 66 2.7 WSW 9 13 5 7 1023.6 1023.7 0.0
19/10:30am 9.1 6.6 4.5 73 2.0 WSW 7 9 4 5 1023.7 - 0.0
19/10:00am 8.7 6.8 4.7 76 1.8 WSW 4 6 2 3 1023.9 1024.0 0.0
19/09:30am 7.8 5.5 4.6 80 1.4 WSW 6 7 3 4 1024.1 - 0.0
19/09:00am 7.9 5.2 3.8 75 1.8 WSW 7 9 4 5 1024.3 1024.4 0.0
19/08:30am 7.6 4.5 3.6 76 1.7 WSW 9 17 5 9 1024.3 - 0.0
19/08:00am 6.4 3.7 2.7 77 1.5 S 6 13 3 7 1024.0 1024.1 0.0
19/07:30am 5.7 3.1 3.2 84 1.0 S 6 7 3 4 1023.8 - 0.0
19/07:00am 5.4 3.4 2.2 80 1.3 S 2 4 1 2 1023.7 1023.8 0.0
19/06:30am 5.3 3.0 2.7 83 1.1 S 4 6 2 3 1023.6 - 0.0
19/06:00am 4.5 1.6 1.7 82 1.1 S 6 7 3 4 1023.3 1023.4 0.0
19/05:30am 5.8 4.0 3.6 86 0.9 S 2 4 1 2 1023.3 - 0.0
19/05:00am 6.0 3.1 4.5 90 0.6 S 9 11 5 6 1023.3 1023.4 0.0
19/04:30am 6.0 3.5 4.5 90 0.6 S 7 9 4 5 1023.3 - 0.0
19/04:00am 6.0 3.4 4.2 88 0.8 S 7 9 4 5 1023.4 1023.5 0.0
19/03:30am 5.9 3.8 4.1 88 0.8 S 4 7 2 4 1023.3 - 0.0
19/03:00am 6.3 4.4 5.1 92 0.5 S 4 9 2 5 1023.4 1023.5 0.0
19/02:30am 5.5 3.8 4.0 90 0.6 S 2 4 1 2 1023.6 - 0.0
19/02:00am 6.0 4.1 5.1 94 0.4 S 4 6 2 3 1023.7 1023.8 0.0
19/01:30am 6.0 4.9 5.0 93 0.4 CALM 0 0 0 0 1023.9 - 0.0
19/01:00am 6.3 5.2 4.9 91 0.6 CALM 0 0 0 0 1024.0 1024.1 0.0
19/12:30am 6.3 4.8 5.1 92 0.5 S 2 4 1 2 1024.2 - 0.0
19/12:00am 6.0 4.0 4.6 91 0.6 S 4 7 2 4 1024.1 1024.2 0.0
 
Date/Time
EST
Tmp

°C
App
Tmp
°C
Dew
Point
°C
Rel
Hum
%
Delta-T

°C
Wind Press
QNH
hPa
Press
MSL
hPa
Rain
since
9 am
mm
Dir
 
Spd
km/h
Gust
km/h
Spd
kts
Gust
kts
18/11:30pm 6.1 4.6 5.1 93 0.4 S 2 4 1 2 1024.3 - 0.0
18/11:00pm 5.8 4.1 4.0 88 0.8 S 2 4 1 2 1024.3 1024.4 0.0
18/10:30pm 4.9 3.1 3.4 90 0.6 S 2 4 1 2 1024.3 - 0.0
18/10:00pm 5.7 3.2 3.7 87 0.8 S 6 7 3 4 1024.4 1024.5 0.0
18/09:30pm 5.9 3.5 4.5 91 0.6 S 6 6 3 3 1024.4 - 0.0
18/09:00pm 6.2 3.8 4.2 87 0.8 S 6 6 3 3 1024.4 1024.5 0.0
18/08:30pm 6.3 3.8 3.8 84 1.1 S 6 7 3 4 1024.1 - 0.0
18/08:00pm 6.3 3.4 2.6 77 1.5 S 7 9 4 5 1024.0 1024.1 0.0
18/07:30pm 6.7 3.9 3.0 77 1.5 S 7 9 4 5 1023.9 - 0.0
18/07:00pm 6.4 3.5 2.7 77 1.5 S 7 9 4 5 1023.7 1023.8 0.0
18/06:30pm 8.0 5.2 1.8 65 2.5 S 6 6 3 3 1023.5 - 0.0
18/06:00pm 9.0 6.6 1.9 61 2.9 S 4 6 2 3 1023.4 1023.5 0.0
18/05:30pm 9.6 7.5 2.0 59 3.2 S 2 2 1 1 1023.2 - 0.0
18/05:00pm 10.2 8.3 2.6 59 3.2 S 2 4 1 2 1023.0 1023.1 0.0
18/04:30pm 10.8 8.6 3.6 61 3.2 S 4 6 2 3 1022.9 - 0.0
18/04:00pm 11.0 9.1 4.7 65 2.8 S 4 6 2 3 1022.9 1023.0 0.0
18/03:30pm 11.4 9.1 2.7 55 3.8 S 4 6 2 3 1022.9 - 0.0
18/03:00pm 11.3 8.2 3.8 60 3.3 S 9 9 5 5 1022.9 1023.0 0.0
18/02:30pm 11.3 8.2 3.8 60 3.3 S 9 11 5 6 1022.9 - 0.0
18/02:00pm 10.9 7.6 4.4 64 2.9 S 11 13 6 7 1022.9 1023.0 0.0
18/01:30pm 10.6 7.8 5.2 69 2.5 S 9 11 5 6 1023.0 - 0.0
18/01:00pm 10.9 7.6 4.4 64 2.9 S 11 13 6 7 1023.2 1023.3 0.0
18/12:30pm 10.9 7.7 3.0 58 3.4 S 9 11 5 6 1023.5 - 0.0
18/12:00pm 10.1 8.2 4.7 69 2.4 S 4 4 2 2 1023.8 1023.9 0.0
18/11:30am 9.2 7.2 4.2 71 2.2 S 4 6 2 3 1024.2 - 0.0
18/11:00am 8.6 6.3 5.0 78 1.6 S 6 7 3 4 1024.5 1024.6 0.0
18/10:30am 8.2 5.8 4.4 77 1.7 S 6 7 3 4 1024.5 - 0.0
18/10:00am 8.1 6.1 4.5 78 1.6 S 4 6 2 3 1024.6 1024.7 0.0
18/09:30am 7.5 5.2 5.0 84 1.1 S 6 7 3 4 1024.7 - 0.0
18/09:00am 7.6 4.7 4.9 83 1.2 S 9 13 5 7 1024.8 1024.9 0.0
18/08:30am 7.1 4.3 5.1 87 0.9 S 9 15 5 8 1024.7 - 0.0
18/08:00am 7.0 4.6 5.3 89 0.7 S 7 13 4 7 1024.6 1024.7 0.0
18/07:30am 5.8 4.5 4.0 88 0.8 CALM 0 4 0 2 1024.3 - 0.0
18/07:00am 4.6 1.9 2.8 88 0.7 S 6 7 3 4 1024.1 1024.2 0.0
18/06:30am 4.0 1.3 2.5 90 0.6 S 6 7 3 4 1023.7 - 0.0
18/06:00am 5.6 3.9 2.1 78 1.4 CALM 0 2 0 1 1023.4 1023.5 0.0
18/05:30am 4.9 1.9 2.3 83 1.0 S 7 7 4 4 1023.2 - 0.0
18/05:00am 4.9 1.6 2.4 84 1.0 S 9 11 5 6 1023.1 1023.2 0.0
18/04:30am 5.1 2.2 2.5 83 1.1 S 7 11 4 6 1022.9 - 0.0
18/04:00am 5.4 2.7 2.8 83 1.1 S 6 7 3 4 1022.7 1022.8 0.0
18/03:30am 5.8 3.1 2.4 79 1.4 S 6 7 3 4 1022.7 - 0.0
18/03:00am 6.5 3.4 3.8 83 1.1 S 9 13 5 7 1022.8 1022.9 0.0
18/02:30am 6.0 3.5 4.0 87 0.8 S 6 7 3 4 1023.2 - 0.0
18/02:00am 6.3 3.3 4.0 85 1.0 S 9 11 5 6 1023.2 1023.3 0.0
18/01:30am 6.8 4.4 4.5 85 1.0 S 6 9 3 5 1023.3 - 0.0
18/01:00am 7.1 5.0 3.7 79 1.4 S 4 6 2 3 1023.2 1023.3 0.0
18/12:30am 7.2 5.8 3.6 78 1.5 CALM 0 2 0 1 1023.2 - 0.0
18/12:00am 7.3 5.9 5.4 88 0.8 S 2 2 1 1 1022.9 1023.0 0.0
 
Date/Time
EST
Tmp

°C
App
Tmp
°C
Dew
Point
°C
Rel
Hum
%
Delta-T

°C
Wind Press
QNH
hPa
Press
MSL
hPa
Rain
since
9 am
mm
Dir
 
Spd
km/h
Gust
km/h
Spd
kts
Gust
kts
17/11:30pm 7.2 5.5 5.7 90 0.7 S 4 6 2 3 1022.8 - 0.0
17/11:00pm 7.4 6.1 5.9 90 0.7 S 2 4 1 2 1022.6 1022.7 0.0
17/10:30pm 7.3 6.0 5.8 90 0.7 S 2 4 1 2 1022.6 - 0.0
17/10:00pm 7.3 5.5 5.4 88 0.8 S 4 4 2 2 1022.6 1022.7 0.0
17/09:30pm 7.5 5.7 5.5 87 0.9 S 4 7 2 4 1022.6 - 0.0
17/09:00pm 7.7 5.6 6.0 89 0.8 S 6 7 3 4 1022.4 1022.5 0.0
17/08:30pm 8.4 6.8 2.2 65 2.6 CALM 0 4 0 2 1022.4 - 0.0
17/08:00pm 8.6 6.3 2.6 66 2.5 S 4 4 2 2 1022.3 1022.4 0.0
17/07:30pm 8.6 6.3 3.0 68 2.4 S 4 4 2 2 1022.1 - 0.0
17/07:00pm 8.3 6.5 3.2 70 2.2 S 2 4 1 2 1022.0 1022.1 0.0
17/06:30pm 8.7 6.6 3.7 71 2.2 S 4 6 2 3 1021.8 - 0.0
17/06:00pm 8.7 6.5 5.1 78 1.6 S 6 6 3 3 1021.6 1021.7 0.0
17/05:30pm 9.1 6.6 4.7 74 2.0 S 7 9 4 5 1021.2 - 0.0
17/05:00pm 9.1 6.2 4.7 74 1.9 S 9 11 5 6 1020.9 1021.0 0.0
17/04:30pm 9.4 5.7 4.2 70 2.3 S 13 15 7 8 1020.5 - 0.0
17/04:00pm 10.3 6.6 4.2 66 2.7 S 13 17 7 9 1020.1 1020.2 0.0
17/03:30pm 10.4 6.3 4.5 67 2.6 S 15 19 8 10 1019.8 - 0.0
17/03:00pm 10.6 6.2 4.9 68 2.6 S 17 20 9 11 1019.6 1019.7 0.0

Latest Capital City Observations: Canberra | Sydney | Melbourne | Brisbane | Adelaide | Perth | Hobart | Darwin

Other Formats:

Comma delimited format used in spreadsheet applications
http://www.bom.gov.au/fwo/IDT60901/IDT60901.94951.axf

JavaScript Object Notation format (JSON) in row-major order
http://www.bom.gov.au/fwo/IDT60901/IDT60901.94951.json